Time;durP1;ratioP1;P1;durP2;ratioP2;P2;SDS_P1;SDS_P2;PMS_P1;PMS_P2;Temp;Humidity;BMP_temperature;BMP_pressure;BME280_temperature;BME280_humidity;BME280_pressure;Samples;Min_cycle;Max_cycle;Signal;HPM_P1;HPM_P2
2021/04/18 00:02:21;;;;;;;;;;;25.80;32.60;;;;;;5064328;28;20330;-70
2021/04/18 00:04:47;;;;;;;;;;;25.70;33.60;;;;;;5055512;28;19908;-70
2021/04/18 00:07:13;;;;;;;;;;;25.70;33.00;;;;;;5056271;28;19917;-70
2021/04/18 00:09:40;;;;;;;;;;;25.60;33.70;;;;;;5076016;28;20003;-70
2021/04/18 00:12:06;;;;;;;;;;;25.50;33.00;;;;;;5075760;28;19916;-70
2021/04/18 00:14:32;;;;;;;;;;;25.40;31.70;;;;;;5076061;28;19935;-70
2021/04/18 00:16:58;;;;;;;;;;;25.30;31.10;;;;;;5075893;28;19931;-70
2021/04/18 00:19:24;;;;;;;;;;;25.30;31.10;;;;;;5075897;28;20246;-70
2021/04/18 00:21:50;;;;;;;;;;;25.20;31.10;;;;;;5075620;28;20365;-69
2021/04/18 00:24:16;;;;;;;;;;;25.00;31.00;;;;;;5075734;28;20038;-70
2021/04/18 00:26:43;;;;;;;;;;;25.00;31.60;;;;;;5075808;28;20007;-70
2021/04/18 00:29:09;;;;;;;;;;;24.90;31.30;;;;;;5075686;28;19916;-70
2021/04/18 00:31:35;;;;;;;;;;;25.00;30.10;;;;;;5075481;28;20000;-70
2021/04/18 00:34:01;;;;;;;;;;;24.90;29.50;;;;;;5075703;28;19916;-70
2021/04/18 00:36:27;;;;;;;;;;;24.90;31.10;;;;;;5070465;28;20356;-69
2021/04/18 00:38:53;;;;;;;;;;;24.90;30.90;;;;;;5072700;28;20384;-70
2021/04/18 00:41:19;;;;;;;;;;;24.90;30.00;;;;;;5067590;28;19943;-69
2021/04/18 00:43:45;;;;;;;;;;;25.10;29.90;;;;;;5070889;28;20346;-69
2021/04/18 00:46:12;;;;;;;;;;;25.10;30.30;;;;;;5068764;28;19921;-69
2021/04/18 00:48:41;;;;;;;;;;;25.00;31.80;;;;;;5071618;28;19966;-69
2021/04/18 00:51:08;;;;;;;;;;;25.10;31.80;;;;;;5072300;28;19990;-69
2021/04/18 00:53:34;;;;;;;;;;;25.00;31.60;;;;;;5070955;28;19999;-69
2021/04/18 00:56:00;;;;;;;;;;;25.20;31.30;;;;;;5071817;28;19932;-69
2021/04/18 00:58:27;;;;;;;;;;;25.30;30.70;;;;;;5076173;28;19943;-70
2021/04/18 01:00:53;;;;;;;;;;;25.30;29.60;;;;;;5070412;28;20274;-70
2021/04/18 01:03:19;;;;;;;;;;;25.50;29.40;;;;;;5073834;28;19920;-70
2021/04/18 01:05:45;;;;;;;;;;;25.40;29.30;;;;;;5075745;28;20011;-69
2021/04/18 01:08:12;;;;;;;;;;;25.40;28.90;;;;;;5071119;28;20567;-69
2021/04/18 01:10:39;;;;;;;;;;;25.20;29.20;;;;;;5072788;28;19916;-71
2021/04/18 01:13:05;;;;;;;;;;;25.20;28.30;;;;;;5072315;28;20379;-71
2021/04/18 01:15:31;;;;;;;;;;;25.10;29.00;;;;;;5070396;28;19912;-70
2021/04/18 01:17:57;;;;;;;;;;;25.00;29.10;;;;;;5072320;28;19916;-70
2021/04/18 01:20:23;;;;;;;;;;;25.00;28.60;;;;;;5074214;28;19920;-71
2021/04/18 01:22:50;;;;;;;;;;;24.90;28.80;;;;;;5071992;28;20019;-71
2021/04/18 01:25:16;;;;;;;;;;;24.90;28.10;;;;;;5073192;28;19921;-71
2021/04/18 01:27:45;;;;;;;;;;;24.70;29.60;;;;;;5057132;28;19980;-70
2021/04/18 01:30:16;;;;;;;;;;;24.80;28.20;;;;;;5071978;28;19913;-70
2021/04/18 01:32:44;;;;;;;;;;;24.70;29.30;;;;;;5072603;28;19921;-70
2021/04/18 01:35:10;;;;;;;;;;;24.50;30.50;;;;;;5074917;28;19920;-70
2021/04/18 01:37:36;;;;;;;;;;;24.60;29.10;;;;;;5077498;28;19923;-70
2021/04/18 01:40:03;;;;;;;;;;;24.50;27.30;;;;;;5056583;28;19959;-70
2021/04/18 01:42:30;;;;;;;;;;;24.40;29.50;;;;;;5073721;28;19993;-70
2021/04/18 01:44:56;;;;;;;;;;;24.40;30.80;;;;;;5071273;28;19920;-70
2021/04/18 01:47:22;;;;;;;;;;;24.60;29.00;;;;;;5082263;28;19912;-70
2021/04/18 01:49:48;;;;;;;;;;;24.50;30.00;;;;;;5073103;28;19913;-71
2021/04/18 01:52:14;;;;;;;;;;;24.50;29.40;;;;;;5074154;28;20266;-71
2021/04/18 01:54:40;;;;;;;;;;;24.80;28.40;;;;;;5072431;28;19912;-70
2021/04/18 01:57:06;;;;;;;;;;;24.80;28.30;;;;;;5094301;28;20338;-70
2021/04/18 01:59:32;;;;;;;;;;;24.60;28.00;;;;;;5065603;28;19913;-70
2021/04/18 02:02:05;;;;;;;;;;;24.50;28.80;;;;;;5066474;28;20346;-70
2021/04/18 02:04:31;;;;;;;;;;;24.40;29.10;;;;;;5070615;28;19914;-69
2021/04/18 02:06:58;;;;;;;;;;;24.20;27.90;;;;;;5072190;28;19923;-70
2021/04/18 02:09:24;;;;;;;;;;;24.20;28.30;;;;;;5069691;28;20328;-70
2021/04/18 02:11:50;;;;;;;;;;;24.20;26.70;;;;;;5073836;28;19912;-69
2021/04/18 02:14:16;;;;;;;;;;;24.10;29.10;;;;;;5073442;28;19928;-69
2021/04/18 02:16:42;;;;;;;;;;;23.80;28.70;;;;;;5071608;28;19928;-69
2021/04/18 02:19:08;;;;;;;;;;;23.80;28.30;;;;;;5074252;28;19913;-69
2021/04/18 02:21:34;;;;;;;;;;;23.70;27.00;;;;;;5072179;28;20044;-70
2021/04/18 02:24:00;;;;;;;;;;;23.60;27.80;;;;;;5070985;28;20408;-69
2021/04/18 02:26:26;;;;;;;;;;;23.50;28.00;;;;;;5070646;28;19912;-69
2021/04/18 02:28:52;;;;;;;;;;;23.30;29.50;;;;;;5073448;28;20006;-69
2021/04/18 02:31:18;;;;;;;;;;;23.30;28.30;;;;;;5077956;28;19909;-69
2021/04/18 02:33:44;;;;;;;;;;;23.10;28.70;;;;;;5076854;28;19909;-69
2021/04/18 02:36:10;;;;;;;;;;;23.00;29.70;;;;;;5078281;28;19978;-69
2021/04/18 02:38:36;;;;;;;;;;;22.70;28.20;;;;;;5077538;28;19908;-70
2021/04/18 02:41:03;;;;;;;;;;;22.70;30.30;;;;;;5072864;28;19921;-69
2021/04/18 02:43:29;;;;;;;;;;;22.60;29.50;;;;;;5074800;28;19963;-69
2021/04/18 02:45:55;;;;;;;;;;;22.30;31.70;;;;;;5076368;28;19913;-70
2021/04/18 02:48:21;;;;;;;;;;;22.30;32.20;;;;;;5066312;28;19912;-70
2021/04/18 02:50:48;;;;;;;;;;;22.20;32.90;;;;;;5072709;28;19912;-70
2021/04/18 02:53:14;;;;;;;;;;;22.10;33.00;;;;;;5076794;28;19923;-70
2021/04/18 02:55:41;;;;;;;;;;;21.80;35.30;;;;;;5076371;28;20349;-70
2021/04/18 02:58:07;;;;;;;;;;;21.60;36.90;;;;;;5077801;28;19908;-69
2021/04/18 03:00:33;;;;;;;;;;;21.40;36.20;;;;;;5074318;28;20401;-69
2021/04/18 03:02:59;;;;;;;;;;;21.20;37.30;;;;;;5072924;28;19917;-69
2021/04/18 03:05:25;;;;;;;;;;;21.00;36.10;;;;;;5075957;28;20251;-69
2021/04/18 03:07:51;;;;;;;;;;;20.80;37.70;;;;;;5077216;28;19912;-69
2021/04/18 03:10:17;;;;;;;;;;;20.60;36.30;;;;;;5071844;28;19912;-69
2021/04/18 03:12:43;;;;;;;;;;;20.40;37.00;;;;;;5076629;28;19942;-69
2021/04/18 03:15:09;;;;;;;;;;;20.20;39.40;;;;;;5076752;28;19921;-69
2021/04/18 03:17:35;;;;;;;;;;;20.00;37.00;;;;;;5084539;28;20338;-69
2021/04/18 03:20:05;;;;;;;;;;;19.80;38.90;;;;;;5069261;28;20306;-68
2021/04/18 03:22:31;;;;;;;;;;;19.60;38.50;;;;;;5071327;28;19916;-69
2021/04/18 03:24:57;;;;;;;;;;;19.40;39.10;;;;;;5079981;28;19917;-69
2021/04/18 03:27:23;;;;;;;;;;;19.20;38.70;;;;;;5075797;28;19916;-68
2021/04/18 03:29:49;;;;;;;;;;;19.00;40.90;;;;;;5076422;28;20347;-68
2021/04/18 03:32:15;;;;;;;;;;;18.80;43.00;;;;;;5075322;28;20330;-68
2021/04/18 03:34:41;;;;;;;;;;;18.70;39.00;;;;;;5075843;28;19923;-68
2021/04/18 03:37:10;;;;;;;;;;;18.50;44.00;;;;;;5076125;28;19913;-68
2021/04/18 03:39:36;;;;;;;;;;;18.40;42.20;;;;;;5074856;28;19912;-68
2021/04/18 03:42:03;;;;;;;;;;;18.30;41.20;;;;;;5074139;28;19923;-68
2021/04/18 03:44:29;;;;;;;;;;;18.20;40.40;;;;;;5059909;28;19915;-68
2021/04/18 03:46:55;;;;;;;;;;;18.00;43.20;;;;;;5075709;28;19916;-68
2021/04/18 03:49:21;;;;;;;;;;;18.00;42.50;;;;;;5075911;28;19913;-68
2021/04/18 03:51:47;;;;;;;;;;;17.80;42.70;;;;;;5075438;28;19912;-68
2021/04/18 03:54:14;;;;;;;;;;;17.70;42.80;;;;;;5075446;28;20026;-68
2021/04/18 03:56:40;;;;;;;;;;;17.60;42.10;;;;;;5071340;28;20362;-68
2021/04/18 03:59:06;;;;;;;;;;;17.50;42.30;;;;;;5075254;28;20330;-68
2021/04/18 04:01:32;;;;;;;;;;;17.40;42.10;;;;;;5075988;28;19917;-69
2021/04/18 04:03:58;;;;;;;;;;;17.20;45.60;;;;;;5074854;28;19931;-69
2021/04/18 04:06:24;;;;;;;;;;;17.00;48.10;;;;;;5074564;28;19912;-68
2021/04/18 04:08:50;;;;;;;;;;;17.00;47.20;;;;;;5075113;28;20429;-69
2021/04/18 04:11:16;;;;;;;;;;;16.90;44.80;;;;;;5073419;28;19952;-68
2021/04/18 04:13:42;;;;;;;;;;;16.70;47.90;;;;;;5072962;28;19913;-68
2021/04/18 04:16:08;;;;;;;;;;;16.60;48.40;;;;;;5073373;28;19920;-68
2021/04/18 04:18:34;;;;;;;;;;;16.40;49.50;;;;;;5058320;28;19920;-68
2021/04/18 04:21:00;;;;;;;;;;;16.40;45.40;;;;;;5104884;28;20000;-68
2021/04/18 04:23:26;;;;;;;;;;;16.40;45.50;;;;;;5072859;28;19912;-68
2021/04/18 04:25:52;;;;;;;;;;;16.30;45.70;;;;;;5074774;28;19919;-68
2021/04/18 04:28:18;;;;;;;;;;;16.30;44.30;;;;;;5077354;28;20265;-68
2021/04/18 04:30:44;;;;;;;;;;;16.30;44.50;;;;;;5075439;28;19916;-68
2021/04/18 04:33:10;;;;;;;;;;;16.20;43.30;;;;;;5074646;28;19916;-68
2021/04/18 04:35:39;;;;;;;;;;;16.20;46.10;;;;;;5074936;28;19919;-68
2021/04/18 04:38:05;;;;;;;;;;;16.10;45.30;;;;;;5075463;28;19943;-68
2021/04/18 04:40:31;;;;;;;;;;;16.00;46.80;;;;;;5074569;28;19973;-69
2021/04/18 04:42:58;;;;;;;;;;;16.00;45.00;;;;;;5074720;28;20301;-68
2021/04/18 04:45:24;;;;;;;;;;;15.90;44.20;;;;;;5075023;28;19962;-69
2021/04/18 04:47:50;;;;;;;;;;;15.90;45.30;;;;;;5074076;28;19962;-69
2021/04/18 04:50:16;;;;;;;;;;;15.80;47.30;;;;;;5074845;28;19919;-68
2021/04/18 04:52:42;;;;;;;;;;;15.70;46.60;;;;;;5097235;28;19916;-68
2021/04/18 04:55:08;;;;;;;;;;;15.70;44.60;;;;;;5074871;28;19913;-68
2021/04/18 04:57:34;;;;;;;;;;;15.60;46.10;;;;;;5103981;28;19955;-68
2021/04/18 05:00:00;;;;;;;;;;;15.60;47.30;;;;;;5074494;28;19919;-68
2021/04/18 05:02:26;;;;;;;;;;;15.50;44.60;;;;;;5073948;28;19917;-68
2021/04/18 05:04:52;;;;;;;;;;;15.50;47.60;;;;;;5075600;28;19919;-69
2021/04/18 05:07:18;;;;;;;;;;;15.50;45.20;;;;;;5073913;28;19920;-69
2021/04/18 05:09:44;;;;;;;;;;;15.40;45.90;;;;;;5073479;28;19923;-69
2021/04/18 05:12:10;;;;;;;;;;;15.40;46.20;;;;;;5075303;28;19912;-68
2021/04/18 05:14:36;;;;;;;;;;;15.30;45.60;;;;;;5074948;28;19913;-69
2021/04/18 05:17:02;;;;;;;;;;;15.40;44.60;;;;;;5079064;28;20293;-69
2021/04/18 05:19:28;;;;;;;;;;;15.30;46.00;;;;;;5079385;28;19908;-68
2021/04/18 05:21:54;;;;;;;;;;;15.30;45.50;;;;;;5073541;28;20617;-68
2021/04/18 05:24:20;;;;;;;;;;;15.30;44.20;;;;;;5074391;28;20369;-68
2021/04/18 05:26:46;;;;;;;;;;;15.30;44.00;;;;;;5073945;28;20289;-68
2021/04/18 05:29:14;;;;;;;;;;;15.20;44.20;;;;;;5067350;28;20353;-68
2021/04/18 05:31:40;;;;;;;;;;;15.20;44.70;;;;;;5061640;28;19920;-69
2021/04/18 05:34:06;;;;;;;;;;;15.10;44.70;;;;;;5072662;28;19920;-68
2021/04/18 05:36:32;;;;;;;;;;;15.10;44.70;;;;;;5073764;28;19965;-68
2021/04/18 05:38:58;;;;;;;;;;;15.00;45.60;;;;;;5106327;28;19957;-68
2021/04/18 05:41:24;;;;;;;;;;;15.00;46.60;;;;;;5073970;28;19919;-69
2021/04/18 05:43:50;;;;;;;;;;;15.00;44.60;;;;;;5070172;28;19921;-68
2021/04/18 05:46:16;;;;;;;;;;;14.90;44.10;;;;;;5072548;28;19921;-68
2021/04/18 05:48:43;;;;;;;;;;;14.80;44.50;;;;;;5072780;28;19963;-68
2021/04/18 05:51:09;;;;;;;;;;;14.80;45.00;;;;;;5073135;28;19913;-68
2021/04/18 05:53:35;;;;;;;;;;;14.80;44.20;;;;;;5073688;28;19912;-69
2021/04/18 05:56:01;;;;;;;;;;;14.70;44.10;;;;;;5069963;28;20270;-68
2021/04/18 05:58:27;;;;;;;;;;;14.70;44.40;;;;;;5058063;28;19920;-68
2021/04/18 06:00:53;;;;;;;;;;;14.60;45.20;;;;;;5074629;28;19956;-68
2021/04/18 06:03:19;;;;;;;;;;;14.50;44.80;;;;;;5074415;28;20369;-68
2021/04/18 06:05:45;;;;;;;;;;;14.40;45.40;;;;;;5077776;28;19919;-68
2021/04/18 06:08:11;;;;;;;;;;;14.40;44.80;;;;;;5077693;28;19912;-68
2021/04/18 06:10:37;;;;;;;;;;;14.30;45.70;;;;;;5070403;28;19916;-68
2021/04/18 06:13:04;;;;;;;;;;;14.30;46.20;;;;;;5109791;28;19917;-68
2021/04/18 06:15:30;;;;;;;;;;;14.20;44.70;;;;;;5077151;28;19943;-68
2021/04/18 06:17:56;;;;;;;;;;;14.20;44.20;;;;;;5077001;28;19912;-68
2021/04/18 06:20:22;;;;;;;;;;;14.20;44.90;;;;;;5077636;28;20243;-68
2021/04/18 06:22:48;;;;;;;;;;;14.10;45.00;;;;;;5076818;28;20265;-68
2021/04/18 06:25:18;;;;;;;;;;;14.00;45.50;;;;;;5075582;28;19913;-68
2021/04/18 06:27:44;;;;;;;;;;;14.00;46.10;;;;;;5078090;28;19920;-68
2021/04/18 06:30:11;;;;;;;;;;;13.90;45.10;;;;;;5077180;28;20033;-68
2021/04/18 06:32:37;;;;;;;;;;;13.80;45.40;;;;;;5078066;28;19969;-69
2021/04/18 06:35:04;;;;;;;;;;;13.80;46.60;;;;;;5078064;28;19916;-68
2021/04/18 06:37:31;;;;;;;;;;;13.80;46.20;;;;;;5077741;28;19908;-68
2021/04/18 06:39:57;;;;;;;;;;;13.70;46.00;;;;;;5077784;28;19913;-68
2021/04/18 06:42:24;;;;;;;;;;;13.70;46.00;;;;;;5077066;28;19928;-68
2021/04/18 06:44:50;;;;;;;;;;;13.60;46.50;;;;;;5077720;28;19943;-68
2021/04/18 06:47:16;;;;;;;;;;;13.50;45.70;;;;;;5074715;28;19920;-68
2021/04/18 06:49:42;;;;;;;;;;;13.40;46.60;;;;;;5074088;28;19912;-68
2021/04/18 06:52:11;;;;;;;;;;;13.40;45.90;;;;;;5075038;28;20342;-68
2021/04/18 06:54:37;;;;;;;;;;;13.30;48.30;;;;;;5076003;28;19912;-68
2021/04/18 06:57:03;;;;;;;;;;;13.40;46.90;;;;;;5073846;28;19923;-68
2021/04/18 06:59:29;;;;;;;;;;;13.30;46.50;;;;;;5073568;28;19912;-68
2021/04/18 07:01:55;;;;;;;;;;;13.30;46.20;;;;;;5075614;28;20000;-68
2021/04/18 07:04:22;;;;;;;;;;;13.40;48.30;;;;;;5077279;28;19920;-68
2021/04/18 07:06:48;;;;;;;;;;;13.30;47.10;;;;;;5075546;28;19916;-68
2021/04/18 07:09:14;;;;;;;;;;;13.20;47.00;;;;;;5076823;28;19924;-68
2021/04/18 07:11:48;;;;;;;;;;;13.30;48.00;;;;;;5078882;28;19913;-68
2021/04/18 07:14:24;;;;;;;;;;;13.20;47.40;;;;;;5070450;28;19943;-69
2021/04/18 07:16:51;;;;;;;;;;;13.10;47.30;;;;;;5079780;28;19981;-68
2021/04/18 07:19:22;;;;;;;;;;;13.00;49.10;;;;;;5069621;28;19965;-68
2021/04/18 07:21:50;;;;;;;;;;;13.00;47.80;;;;;;5076744;28;19917;-68
2021/04/18 07:24:17;;;;;;;;;;;13.00;49.10;;;;;;5075178;28;19912;-68
2021/04/18 07:26:43;;;;;;;;;;;12.90;49.40;;;;;;5074498;28;19924;-68
2021/04/18 07:29:14;;;;;;;;;;;12.90;49.20;;;;;;5075966;28;19912;-68
2021/04/18 07:31:41;;;;;;;;;;;12.80;49.40;;;;;;5075754;28;19966;-67
2021/04/18 07:34:14;;;;;;;;;;;12.80;47.50;;;;;;5075820;28;19916;-68
2021/04/18 07:36:41;;;;;;;;;;;12.80;48.40;;;;;;5075883;28;19966;-67
2021/04/18 07:39:08;;;;;;;;;;;12.70;48.20;;;;;;5075031;28;19936;-68
2021/04/18 07:41:38;;;;;;;;;;;12.80;47.80;;;;;;5075530;28;20310;-68
2021/04/18 07:44:06;;;;;;;;;;;12.70;47.70;;;;;;5069346;28;20239;-68
2021/04/18 07:46:33;;;;;;;;;;;12.70;47.90;;;;;;5075645;28;19977;-68
2021/04/18 07:48:59;;;;;;;;;;;12.60;49.50;;;;;;5074793;28;19916;-68
2021/04/18 07:51:25;;;;;;;;;;;12.60;47.90;;;;;;5073673;28;19920;-68
2021/04/18 07:53:52;;;;;;;;;;;12.60;47.70;;;;;;5075695;28;19939;-68
2021/04/18 07:56:18;;;;;;;;;;;12.60;48.50;;;;;;5074359;28;19912;-68
2021/04/18 07:58:44;;;;;;;;;;;12.60;47.70;;;;;;5075657;28;20271;-68
2021/04/18 08:01:11;;;;;;;;;;;12.60;47.20;;;;;;5074808;28;19927;-68
2021/04/18 08:03:40;;;;;;;;;;;12.50;47.90;;;;;;5069653;28;19972;-68
2021/04/18 08:06:06;;;;;;;;;;;12.50;48.00;;;;;;5075856;28;19913;-67
2021/04/18 08:08:43;;;;;;;;;;;12.50;48.40;;;;;;5073738;28;19921;-68
2021/04/18 08:11:10;;;;;;;;;;;12.40;47.10;;;;;;5063752;28;19913;-67
2021/04/18 08:13:40;;;;;;;;;;;12.40;47.30;;;;;;5074734;28;19950;-68
2021/04/18 08:16:07;;;;;;;;;;;12.30;47.30;;;;;;5075385;28;19912;-68
2021/04/18 08:18:36;;;;;;;;;;;12.30;47.70;;;;;;5072661;28;19920;-68
2021/04/18 08:21:03;;;;;;;;;;;12.30;48.20;;;;;;5074157;28;20349;-68
2021/04/18 08:23:38;;;;;;;;;;;12.20;48.20;;;;;;5075282;28;19919;-68
2021/04/18 08:26:04;;;;;;;;;;;12.20;47.90;;;;;;5064393;28;20308;-67
2021/04/18 08:28:31;;;;;;;;;;;12.10;47.90;;;;;;5073688;28;19936;-68
2021/04/18 08:31:01;;;;;;;;;;;12.10;48.00;;;;;;5074867;28;19912;-68
2021/04/18 08:33:54;;;;;;;;;;;12.10;48.10;;;;;;5074699;28;19924;-68
2021/04/18 08:36:34;;;;;;;;;;;12.00;49.00;;;;;;5072720;28;19913;-67
2021/04/18 08:39:06;;;;;;;;;;;12.10;48.70;;;;;;5073104;28;20342;-68
2021/04/18 08:41:38;;;;;;;;;;;12.10;49.40;;;;;;5074232;28;19913;-67
2021/04/18 08:44:20;;;;;;;;;;;12.00;48.60;;;;;;5074277;28;19916;-68
2021/04/18 08:46:47;;;;;;;;;;;11.90;48.70;;;;;;5072651;28;20300;-68
2021/04/18 08:49:25;;;;;;;;;;;11.80;48.30;;;;;;5074839;28;20263;-68
2021/04/18 08:51:51;;;;;;;;;;;11.80;48.60;;;;;;5073421;28;19917;-68
2021/04/18 08:54:22;;;;;;;;;;;11.90;50.00;;;;;;5074720;28;19919;-68
2021/04/18 08:56:55;;;;;;;;;;;11.80;49.70;;;;;;5074888;28;19951;-68
2021/04/18 08:59:22;;;;;;;;;;;11.70;51.60;;;;;;5073286;28;20033;-68
2021/04/18 09:02:00;;;;;;;;;;;11.60;49.80;;;;;;5073652;28;19918;-68
2021/04/18 09:04:27;;;;;;;;;;;11.60;49.60;;;;;;5076846;28;19912;-68
2021/04/18 09:06:53;;;;;;;;;;;11.50;50.70;;;;;;5075101;28;19939;-67
2021/04/18 09:09:20;;;;;;;;;;;11.50;49.30;;;;;;5077784;28;19919;-70
2021/04/18 09:11:49;;;;;;;;;;;11.50;49.20;;;;;;5079605;28;20019;-70
2021/04/18 09:14:17;;;;;;;;;;;11.50;49.00;;;;;;5067788;28;19916;-70
2021/04/18 09:16:43;;;;;;;;;;;11.50;49.10;;;;;;5072149;28;19927;-69
2021/04/18 09:19:27;;;;;;;;;;;11.40;50.50;;;;;;5072316;28;19981;-69
2021/04/18 09:21:59;;;;;;;;;;;11.40;49.20;;;;;;5071898;28;19923;-69
2021/04/18 09:24:28;;;;;;;;;;;11.40;50.50;;;;;;5074043;28;19920;-70
2021/04/18 09:26:58;;;;;;;;;;;11.30;50.90;;;;;;5071790;28;19916;-69
2021/04/18 09:29:27;;;;;;;;;;;11.30;50.70;;;;;;5073687;28;20467;-69
2021/04/18 09:31:53;;;;;;;;;;;11.30;49.30;;;;;;5072419;28;20389;-69
2021/04/18 09:34:20;;;;;;;;;;;11.20;49.60;;;;;;5073960;28;19924;-69
2021/04/18 09:36:47;;;;;;;;;;;11.10;50.80;;;;;;5072147;28;19920;-69
2021/04/18 09:39:13;;;;;;;;;;;11.10;49.00;;;;;;5072359;28;19923;-69
2021/04/18 09:41:40;;;;;;;;;;;11.10;50.40;;;;;;5073054;28;19999;-69
2021/04/18 09:44:06;;;;;;;;;;;11.10;49.00;;;;;;5071903;28;19944;-69
2021/04/18 09:46:42;;;;;;;;;;;11.10;49.10;;;;;;5074136;28;20394;-69
2021/04/18 09:49:08;;;;;;;;;;;11.10;49.60;;;;;;5074213;28;20058;-69
2021/04/18 09:52:04;;;;;;;;;;;11.10;48.70;;;;;;5072656;28;19947;-69
2021/04/18 09:54:31;;;;;;;;;;;11.10;49.10;;;;;;5063952;28;19919;-70
2021/04/18 09:57:17;;;;;;;;;;;11.20;49.80;;;;;;5073188;28;19912;-69
2021/04/18 09:59:43;;;;;;;;;;;11.20;52.00;;;;;;5072102;28;19973;-69
2021/04/18 10:02:13;;;;;;;;;;;11.20;51.00;;;;;;5071975;28;19916;-69
2021/04/18 10:04:40;;;;;;;;;;;11.10;50.70;;;;;;5073315;28;19916;-69
2021/04/18 10:07:06;;;;;;;;;;;11.10;50.80;;;;;;5074428;28;19995;-69
2021/04/18 10:09:49;;;;;;;;;;;11.00;50.30;;;;;;5073709;28;20381;-69
2021/04/18 10:12:15;;;;;;;;;;;11.00;51.10;;;;;;5070812;28;19916;-69
2021/04/18 10:14:41;;;;;;;;;;;11.00;51.00;;;;;;5073588;28;19947;-69
2021/04/18 10:17:07;;;;;;;;;;;11.00;51.50;;;;;;5073233;28;20033;-69
2021/04/18 10:19:34;;;;;;;;;;;11.10;52.30;;;;;;5072869;28;20007;-69
2021/04/18 10:22:10;;;;;;;;;;;11.10;53.60;;;;;;5073397;28;19912;-69
2021/04/18 10:24:36;;;;;;;;;;;11.30;55.00;;;;;;5072942;28;20011;-69
2021/04/18 10:27:03;;;;;;;;;;;11.40;55.10;;;;;;5072956;28;20009;-69
2021/04/18 10:29:29;;;;;;;;;;;11.10;52.80;;;;;;5073761;28;19931;-69
2021/04/18 10:31:55;;;;;;;;;;;10.90;51.60;;;;;;5073312;28;20369;-69
2021/04/18 10:34:22;;;;;;;;;;;10.80;52.20;;;;;;5073680;28;19913;-69
2021/04/18 10:36:48;;;;;;;;;;;10.70;53.00;;;;;;5071821;28;19962;-69
2021/04/18 10:39:15;;;;;;;;;;;10.70;52.10;;;;;;5072841;28;19928;-69
2021/04/18 10:41:44;;;;;;;;;;;10.70;52.10;;;;;;5072586;28;20402;-69
2021/04/18 10:44:15;;;;;;;;;;;10.70;51.90;;;;;;5073248;28;19916;-69
2021/04/18 10:46:42;;;;;;;;;;;10.70;52.50;;;;;;5073664;28;19985;-69
2021/04/18 10:49:08;;;;;;;;;;;10.80;53.30;;;;;;5074750;28;20003;-69
2021/04/18 10:51:35;;;;;;;;;;;10.80;52.60;;;;;;5077433;28;19935;-69
2021/04/18 10:54:01;;;;;;;;;;;10.70;52.50;;;;;;5077026;28;19913;-69
2021/04/18 10:56:27;;;;;;;;;;;10.70;52.40;;;;;;5075543;28;19920;-69
2021/04/18 10:58:53;;;;;;;;;;;10.60;52.80;;;;;;5076102;28;19920;-69
2021/04/18 11:01:19;;;;;;;;;;;10.60;51.40;;;;;;5077128;28;20003;-69
2021/04/18 11:03:45;;;;;;;;;;;10.60;51.50;;;;;;5076996;28;19913;-70
2021/04/18 11:06:11;;;;;;;;;;;10.60;51.70;;;;;;5075948;28;19912;-69
2021/04/18 11:08:37;;;;;;;;;;;10.50;52.20;;;;;;5077376;28;20304;-69
2021/04/18 11:11:04;;;;;;;;;;;10.60;53.20;;;;;;5077758;28;19912;-69
2021/04/18 11:13:30;;;;;;;;;;;10.60;53.40;;;;;;5078830;28;20232;-69
2021/04/18 11:15:56;;;;;;;;;;;10.60;52.50;;;;;;5079385;28;19913;-69
2021/04/18 11:18:22;;;;;;;;;;;10.60;52.30;;;;;;5076825;28;19920;-69
2021/04/18 11:20:48;;;;;;;;;;;10.50;53.00;;;;;;5076748;28;20239;-69
2021/04/18 11:23:14;;;;;;;;;;;10.70;54.90;;;;;;5075853;28;19924;-69
2021/04/18 11:25:40;;;;;;;;;;;10.70;53.20;;;;;;5076383;28;19920;-69
2021/04/18 11:28:06;;;;;;;;;;;10.80;54.80;;;;;;5076215;28;19919;-69
2021/04/18 11:30:32;;;;;;;;;;;10.80;55.40;;;;;;5076532;28;20012;-69
2021/04/18 11:32:58;;;;;;;;;;;10.80;56.00;;;;;;5075351;28;20357;-69
2021/04/18 11:35:24;;;;;;;;;;;10.80;56.10;;;;;;5068657;28;19938;-69
2021/04/18 11:37:54;;;;;;;;;;;10.90;57.00;;;;;;5071816;28;19920;-69
2021/04/18 11:40:21;;;;;;;;;;;10.90;55.80;;;;;;5075191;28;19912;-69
2021/04/18 11:42:47;;;;;;;;;;;10.70;55.00;;;;;;5065235;28;19917;-69
2021/04/18 11:45:14;;;;;;;;;;;10.80;56.80;;;;;;5075616;28;19932;-69
2021/04/18 11:47:40;;;;;;;;;;;10.80;55.60;;;;;;5075650;28;19951;-69
2021/04/18 11:50:06;;;;;;;;;;;10.60;55.30;;;;;;5075851;28;20279;-69
2021/04/18 11:52:33;;;;;;;;;;;10.60;54.80;;;;;;5075977;28;19916;-69
2021/04/18 11:54:59;;;;;;;;;;;10.80;57.20;;;;;;5075538;28;20409;-69
2021/04/18 11:57:25;;;;;;;;;;;10.90;57.70;;;;;;5075056;28;19976;-69
2021/04/18 11:59:51;;;;;;;;;;;10.90;57.00;;;;;;5075441;28;19916;-69
2021/04/18 12:02:17;;;;;;;;;;;10.90;56.60;;;;;;5074967;28;20361;-69
2021/04/18 12:04:43;;;;;;;;;;;10.90;57.80;;;;;;5074598;28;19999;-69
2021/04/18 12:07:09;;;;;;;;;;;10.90;57.30;;;;;;5074434;28;20050;-69
2021/04/18 12:09:35;;;;;;;;;;;10.90;57.20;;;;;;5074992;28;19973;-69
2021/04/18 12:12:02;;;;;;;;;;;10.80;56.30;;;;;;5072933;28;19924;-69
2021/04/18 12:14:28;;;;;;;;;;;10.70;56.20;;;;;;5074676;28;19912;-69
2021/04/18 12:16:54;;;;;;;;;;;10.60;56.60;;;;;;5075970;28;20081;-69
2021/04/18 12:19:20;;;;;;;;;;;10.60;56.90;;;;;;5075160;28;19913;-69
2021/04/18 12:21:46;;;;;;;;;;;10.60;57.20;;;;;;5074312;28;19932;-69
2021/04/18 12:24:12;;;;;;;;;;;10.60;56.20;;;;;;5096406;28;20354;-69
2021/04/18 12:26:38;;;;;;;;;;;10.60;56.20;;;;;;5074689;28;19913;-69
2021/04/18 12:29:04;;;;;;;;;;;10.60;56.20;;;;;;5074949;28;20350;-69
2021/04/18 12:31:31;;;;;;;;;;;10.50;55.80;;;;;;5074550;28;20008;-69
2021/04/18 12:33:57;;;;;;;;;;;10.40;55.10;;;;;;5073961;28;20011;-69
2021/04/18 12:36:23;;;;;;;;;;;10.40;55.10;;;;;;5074925;28;19920;-69
2021/04/18 12:38:49;;;;;;;;;;;10.40;55.40;;;;;;5073820;28;19913;-69
2021/04/18 12:41:15;;;;;;;;;;;10.50;56.20;;;;;;5075221;28;19916;-69
2021/04/18 12:43:41;;;;;;;;;;;10.40;55.70;;;;;;5073477;28;20249;-69
2021/04/18 12:46:07;;;;;;;;;;;10.30;55.40;;;;;;5072555;28;19917;-68
2021/04/18 12:48:33;;;;;;;;;;;10.30;55.50;;;;;;5070581;28;19916;-70
2021/04/18 12:51:00;;;;;;;;;;;10.30;56.10;;;;;;5074295;28;19912;-69
2021/04/18 12:53:26;;;;;;;;;;;10.30;56.10;;;;;;5071746;28;19920;-69
2021/04/18 12:55:52;;;;;;;;;;;10.40;57.00;;;;;;5075565;28;19977;-69
2021/04/18 12:58:18;;;;;;;;;;;10.30;56.20;;;;;;5073326;28;20317;-69
2021/04/18 13:00:44;;;;;;;;;;;10.10;56.00;;;;;;5074391;28;19982;-69
2021/04/18 13:03:10;;;;;;;;;;;10.20;56.30;;;;;;5072524;28;19916;-69
2021/04/18 13:05:36;;;;;;;;;;;10.20;56.70;;;;;;5072367;28;20392;-69
2021/04/18 13:08:02;;;;;;;;;;;10.40;58.50;;;;;;5073431;28;20350;-69
2021/04/18 13:10:28;;;;;;;;;;;10.40;57.80;;;;;;5074269;28;19991;-69
2021/04/18 13:12:54;;;;;;;;;;;10.40;57.60;;;;;;5073861;28;19920;-69
2021/04/18 13:15:21;;;;;;;;;;;10.40;57.40;;;;;;5074959;28;20309;-70
2021/04/18 13:17:48;;;;;;;;;;;10.30;57.40;;;;;;5078533;28;19913;-69
2021/04/18 13:20:15;;;;;;;;;;;10.20;57.20;;;;;;5078533;28;19912;-69
2021/04/18 13:22:41;;;;;;;;;;;10.10;57.00;;;;;;5074034;28;19920;-69
2021/04/18 13:25:08;;;;;;;;;;;10.20;57.90;;;;;;5072769;28;19920;-69
2021/04/18 13:27:34;;;;;;;;;;;10.30;58.60;;;;;;5074278;28;19919;-69
2021/04/18 13:30:01;;;;;;;;;;;10.40;58.70;;;;;;5074318;28;20318;-69
2021/04/18 13:32:27;;;;;;;;;;;10.50;59.30;;;;;;5074156;28;20338;-69
2021/04/18 13:34:53;;;;;;;;;;;10.50;59.20;;;;;;5072885;28;19924;-69
2021/04/18 13:37:19;;;;;;;;;;;10.50;59.30;;;;;;5071123;28;19912;-69
2021/04/18 13:39:47;;;;;;;;;;;10.50;59.40;;;;;;5073026;28;19943;-69
2021/04/18 13:42:13;;;;;;;;;;;10.50;59.30;;;;;;5072770;28;19932;-69
2021/04/18 13:44:39;;;;;;;;;;;10.50;59.10;;;;;;5070925;28;19955;-69
2021/04/18 13:47:05;;;;;;;;;;;10.40;59.00;;;;;;5072284;28;19939;-68
2021/04/18 13:49:31;;;;;;;;;;;10.40;59.50;;;;;;5073834;28;20381;-69
2021/04/18 13:51:57;;;;;;;;;;;10.40;59.40;;;;;;5072707;28;19912;-69
2021/04/18 13:54:23;;;;;;;;;;;10.50;59.50;;;;;;5072774;28;19932;-69
2021/04/18 13:56:49;;;;;;;;;;;10.50;59.60;;;;;;5074152;28;19908;-69
2021/04/18 13:59:15;;;;;;;;;;;10.50;59.40;;;;;;5074093;28;19977;-69
2021/04/18 14:01:41;;;;;;;;;;;10.40;58.70;;;;;;5072957;28;19912;-69
2021/04/18 14:04:08;;;;;;;;;;;10.40;58.70;;;;;;5073949;28;20012;-68
2021/04/18 14:06:34;;;;;;;;;;;10.40;58.70;;;;;;5072638;28;19921;-68
2021/04/18 14:09:00;;;;;;;;;;;10.50;59.60;;;;;;5073323;28;19916;-69
2021/04/18 14:11:26;;;;;;;;;;;10.50;59.40;;;;;;5073544;28;19912;-68
2021/04/18 14:13:53;;;;;;;;;;;10.70;58.80;;;;;;5073817;28;19923;-68
2021/04/18 14:16:19;;;;;;;;;;;10.70;59.00;;;;;;5070857;28;19999;-69